CMB837 Details

Departure: Joint Base McGuire Dix Lakehurst (KWRI)
Arrival: Ramstein Air Force Base (ETAR)
Route: PTPL5 SHLEP HTO WHALE N135A PORTI NATW ATSUR GAPLI UN20 SAM UM140 DVR UL9 KONAN UL607 SPI UT180 PESOV T180 NIVNU T847 SIPVU T847 OLIVI Q762 XIDOD
Notes: USTRANSCOM CONTRACT FLIGHT


Current Weather Information
KWRI 181456Z AUTO 06005KT 10SM OVC075 05/M11 A3029 RMK AO2 SLP258 T00471114 51011 $
ETAR 181456Z 27010KT 9999 CLR 10/00 A3010 RMK AO2A SLP203 60000 T00961003 55001 $